Time;durP1;ratioP1;P1;durP2;ratioP2;P2;SDS_P1;SDS_P2;PMS_P1;PMS_P2;Temp;Humidity;BMP_temperature;BMP_pressure;BME280_temperature;BME280_humidity;BME280_pressure;Samples;Min_cycle;Max_cycle;Signal;HPM_P1;HPM_P2
2023/02/11 00:00:40;;;;;;;45.00;23.13;;;1.80;99.90;;;;;;4999737;28;20200;-78
2023/02/11 00:03:09;;;;;;;30.13;19.75;;;1.60;99.90;;;;;;4997661;28;20718;-79
2023/02/11 00:05:37;;;;;;;26.90;18.63;;;1.70;99.90;;;;;;4996867;28;20280;-78
2023/02/11 00:08:05;;;;;;;27.92;18.95;;;1.80;99.90;;;;;;5003024;28;20200;-79
2023/02/11 00:10:34;;;;;;;29.80;18.85;;;1.70;99.90;;;;;;5001542;28;20202;-78
2023/02/11 00:13:02;;;;;;;29.80;18.05;;;1.70;99.90;;;;;;5000695;28;20553;-79
2023/02/11 00:15:30;;;;;;;28.80;17.98;;;1.80;99.90;;;;;;4997918;28;20258;-79
2023/02/11 00:17:59;;;;;;;25.92;18.45;;;1.70;99.90;;;;;;4999180;28;20214;-79
2023/02/11 00:20:27;;;;;;;30.25;19.15;;;1.80;99.90;;;;;;4999775;28;20204;-78
2023/02/11 00:22:55;;;;;;;27.08;17.20;;;1.80;99.90;;;;;;4996263;28;20218;-78
2023/02/11 00:25:23;;;;;;;27.63;19.30;;;1.90;99.90;;;;;;4996387;28;20195;-80
2023/02/11 00:27:53;;;;;;;25.98;17.85;;;1.90;99.90;;;;;;5013626;28;20211;-79
2023/02/11 00:30:21;;;;;;;27.15;17.63;;;1.70;99.90;;;;;;4998311;28;20208;-78
2023/02/11 00:32:49;;;;;;;28.60;18.23;;;1.70;99.90;;;;;;4997970;28;20220;-78
2023/02/11 00:35:17;;;;;;;32.15;17.90;;;1.60;99.90;;;;;;5000799;28;20203;-78
2023/02/11 00:37:45;;;;;;;27.67;17.42;;;1.70;99.90;;;;;;4999930;28;20205;-79
2023/02/11 00:40:14;;;;;;;27.45;18.40;;;1.70;99.90;;;;;;4994250;28;20218;-79
2023/02/11 00:42:43;;;;;;;26.52;17.73;;;1.80;99.90;;;;;;4996173;28;20231;-79
2023/02/11 00:45:12;;;;;;;35.72;19.30;;;2.00;99.90;;;;;;4999871;28;20207;-80
2023/02/11 00:47:40;;;;;;;24.95;17.33;;;2.00;99.90;;;;;;4998013;28;20222;-79
2023/02/11 00:50:09;;;;;;;27.88;17.20;;;2.10;99.90;;;;;;4999288;28;20716;-79
2023/02/11 00:52:37;;;;;;;26.10;18.02;;;2.00;99.90;;;;;;4999786;28;20219;-79
2023/02/11 00:55:05;;;;;;;27.60;17.60;;;1.90;99.90;;;;;;4998105;28;20210;-78
2023/02/11 00:57:34;;;;;;;25.42;16.55;;;1.80;99.90;;;;;;4998814;28;20219;-80
2023/02/11 01:00:03;;;;;;;26.75;17.33;;;1.70;99.90;;;;;;5001634;28;20562;-80
2023/02/11 01:02:33;;;;;;;27.55;16.65;;;1.60;99.90;;;;;;5002952;28;20246;-80
2023/02/11 01:05:01;;;;;;;24.45;17.35;;;1.60;99.90;;;;;;5000507;28;20322;-79
2023/02/11 01:07:29;;;;;;;28.35;18.35;;;1.30;99.90;;;;;;5000167;28;20249;-79
2023/02/11 01:09:57;;;;;;;25.23;17.73;;;1.50;99.90;;;;;;5000183;28;20218;-79
2023/02/11 01:12:26;;;;;;;25.05;16.65;;;1.40;99.90;;;;;;5001491;28;20230;-79
2023/02/11 01:14:54;;;;;;;27.73;18.33;;;1.50;99.90;;;;;;5001462;28;20249;-79
2023/02/11 01:17:22;;;;;;;21.25;16.15;;;1.60;99.90;;;;;;5003869;28;20201;-80
2023/02/11 01:19:51;;;;;;;23.15;15.80;;;1.50;99.90;;;;;;4998862;28;20208;-78
2023/02/11 01:22:20;;;;;;;31.65;17.35;;;1.40;99.90;;;;;;5003555;28;20219;-80
2023/02/11 01:24:48;;;;;;;25.85;16.98;;;1.40;99.90;;;;;;5006344;28;20198;-80
2023/02/11 01:27:16;;;;;;;24.08;16.92;;;1.40;99.90;;;;;;5003337;28;20230;-80
2023/02/11 01:29:44;;;;;;;26.17;17.65;;;1.40;99.90;;;;;;5001324;28;20283;-79
2023/02/11 01:32:12;;;;;;;24.15;16.75;;;1.40;99.90;;;;;;5004175;28;20886;-79
2023/02/11 01:34:40;;;;;;;21.98;16.00;;;1.30;99.90;;;;;;4997934;28;20203;-79
2023/02/11 01:37:10;;;;;;;24.48;18.17;;;1.30;99.90;;;;;;5001306;28;20761;-80
2023/02/11 01:39:38;;;;;;;31.25;19.90;;;1.20;99.90;;;;;;5000507;28;20198;-79
2023/02/11 01:42:06;;;;;;;32.15;19.15;;;1.40;99.90;;;;;;5000172;28;20226;-78
2023/02/11 01:44:37;;;;;;;28.92;19.08;;;1.50;99.90;;;;;;4995366;28;20206;-81
2023/02/11 01:47:05;;;;;;;27.27;18.80;;;1.40;99.90;;;;;;4996636;28;20208;-80
2023/02/11 01:49:36;;;;;;;52.88;33.83;;;1.40;99.90;;;;;;4999073;28;20207;-79
2023/02/11 01:52:10;;;;;;;32.90;21.35;;;1.50;99.90;;;;;;4999084;28;20214;-81
2023/02/11 01:57:31;;;;;;;25.42;19.35;;;1.30;99.90;;;;;;4997700;28;20214;-79
2023/02/11 02:00:10;;;;;;;39.05;23.33;;;1.10;99.90;;;;;;5009746;28;20204;-78
2023/02/11 02:02:44;;;;;;;35.13;20.98;;;1.10;99.90;;;;;;4995398;28;20222;-79
2023/02/11 02:05:23;;;;;;;27.13;19.45;;;1.20;99.90;;;;;;4994181;28;20223;-79
2023/02/11 02:08:00;;;;;;;31.02;19.13;;;1.20;99.90;;;;;;4998897;28;20680;-79
2023/02/11 02:10:30;;;;;;;27.33;17.67;;;1.20;99.90;;;;;;4997835;28;20194;-79
2023/02/11 02:12:58;;;;;;;29.27;17.70;;;1.20;99.90;;;;;;4998298;28;20214;-80
2023/02/11 02:15:31;;;;;;;26.45;17.25;;;1.10;99.90;;;;;;4999091;28;20784;-79
2023/02/11 02:18:14;;;;;;;25.23;17.02;;;1.10;99.90;;;;;;4997018;28;20237;-78
2023/02/11 02:21:06;;;;;;;26.40;16.95;;;1.20;99.90;;;;;;4995189;28;20929;-79
2023/02/11 02:24:01;;;;;;;28.13;18.00;;;1.10;99.90;;;;;;4994692;28;22291;-79
2023/02/11 02:27:01;;;;;;;24.02;18.10;;;1.10;99.90;;;;;;4993558;28;20581;-79
2023/02/11 02:30:04;;;;;;;25.60;16.75;;;0.90;99.90;;;;;;4995865;28;20212;-79
2023/02/11 02:32:43;;;;;;;27.20;18.08;;;0.90;99.90;;;;;;4965485;28;20719;-79
2023/02/11 02:35:24;;;;;;;29.30;17.27;;;1.00;99.90;;;;;;4999710;28;20734;-79
2023/02/11 02:37:59;;;;;;;31.23;18.60;;;1.20;99.90;;;;;;4996733;28;20628;-79
2023/02/11 02:40:32;;;;;;;28.80;18.00;;;1.20;99.90;;;;;;4997878;28;20204;-78
2023/02/11 02:43:01;;;;;;;25.25;17.80;;;1.20;99.90;;;;;;4996342;28;20253;-79
2023/02/11 02:45:30;;;;;;;24.05;15.77;;;1.20;99.90;;;;;;4996029;28;20199;-79
2023/02/11 02:47:59;;;;;;;24.17;16.67;;;1.10;99.90;;;;;;4996106;28;20683;-80
2023/02/11 02:50:32;;;;;;;27.55;17.35;;;0.90;99.90;;;;;;5001079;28;20228;-79
2023/02/11 02:53:13;;;;;;;27.05;18.35;;;1.10;99.90;;;;;;4996464;28;20235;-79
2023/02/11 02:55:52;;;;;;;28.63;18.52;;;1.20;99.90;;;;;;5012033;28;20227;-79
2023/02/11 02:58:39;;;;;;;26.45;17.85;;;1.20;99.90;;;;;;5000192;28;20230;-79
2023/02/11 03:01:13;;;;;;;25.30;17.50;;;1.10;99.90;;;;;;5000192;28;20219;-79
2023/02/11 03:03:51;;;;;;;27.33;18.40;;;1.10;99.90;;;;;;4999409;28;20225;-78
2023/02/11 03:06:32;;;;;;;23.23;17.83;;;1.10;99.90;;;;;;4997849;28;20765;-80
2023/02/11 03:09:06;;;;;;;26.85;16.95;;;1.10;99.90;;;;;;4997825;28;20198;-78
2023/02/11 03:11:38;;;;;;;25.67;17.50;;;0.90;99.90;;;;;;5001921;28;20218;-78
2023/02/11 03:14:10;;;;;;;25.70;17.75;;;0.90;99.90;;;;;;5003408;28;20246;-80
2023/02/11 03:16:39;;;;;;;25.88;17.98;;;1.10;99.90;;;;;;5007317;28;20206;-79
2023/02/11 03:19:13;;;;;;;26.85;16.85;;;1.20;99.90;;;;;;5003110;28;20208;-81
2023/02/11 03:21:43;;;;;;;28.40;17.75;;;0.90;99.90;;;;;;5005912;28;20219;-80
2023/02/11 03:24:16;;;;;;;23.35;16.27;;;0.90;99.90;;;;;;5003186;28;20214;-80
2023/02/11 03:26:49;;;;;;;26.67;18.73;;;1.10;99.90;;;;;;5004923;28;20187;-80
2023/02/11 03:29:28;;;;;;;30.75;17.33;;;1.00;99.90;;;;;;5004149;28;20190;-80
2023/02/11 03:32:04;;;;;;;29.48;18.73;;;1.10;99.90;;;;;;5000496;28;20570;-79
2023/02/11 03:34:42;;;;;;;29.75;18.00;;;1.10;99.90;;;;;;5001419;28;20313;-79
2023/02/11 03:37:14;;;;;;;25.63;17.98;;;1.20;99.90;;;;;;4997834;28;20207;-80
2023/02/11 03:39:47;;;;;;;26.73;17.30;;;1.10;99.90;;;;;;4998666;28;20210;-76
2023/02/11 03:42:16;;;;;;;24.40;16.52;;;1.00;99.90;;;;;;4999530;28;20710;-79
2023/02/11 03:44:49;;;;;;;25.58;17.00;;;1.30;99.90;;;;;;4996881;28;20305;-78
2023/02/11 03:47:21;;;;;;;26.20;16.85;;;1.30;99.90;;;;;;4999845;28;20223;-79
2023/02/11 03:49:53;;;;;;;21.67;17.25;;;1.20;99.90;;;;;;5000416;28;20199;-79
2023/02/11 03:52:23;;;;;;;27.15;18.17;;;1.40;99.90;;;;;;5002260;28;20249;-80
2023/02/11 03:54:55;;;;;;;26.50;18.35;;;1.50;99.90;;;;;;5001568;28;20191;-81
2023/02/11 03:57:24;;;;;;;23.58;18.15;;;1.30;99.90;;;;;;4999479;28;20212;-80
2023/02/11 03:59:54;;;;;;;31.50;19.40;;;1.40;99.90;;;;;;4996540;28;20209;-79
2023/02/11 04:02:25;;;;;;;23.98;17.60;;;1.30;99.90;;;;;;5001501;28;20229;-80
2023/02/11 04:04:54;;;;;;;28.17;19.00;;;1.30;99.90;;;;;;5002130;28;20223;-80
2023/02/11 04:07:23;;;;;;;32.13;18.85;;;1.30;99.90;;;;;;5005175;28;20211;-80
2023/02/11 04:09:51;;;;;;;26.50;17.90;;;1.30;99.90;;;;;;5001165;28;20199;-80
2023/02/11 04:12:19;;;;;;;26.73;18.83;;;1.20;99.90;;;;;;4998641;28;20309;-80
2023/02/11 04:14:47;;;;;;;27.63;18.08;;;1.20;99.90;;;;;;5000703;28;20237;-79
2023/02/11 04:17:16;;;;;;;24.33;17.25;;;1.10;99.90;;;;;;5002222;28;20197;-80
2023/02/11 04:19:44;;;;;;;27.63;17.73;;;1.10;99.90;;;;;;4998907;28;20273;-80
2023/02/11 04:22:13;;;;;;;28.80;19.10;;;1.00;99.90;;;;;;4996738;28;20219;-80
2023/02/11 04:24:42;;;;;;;26.55;18.45;;;1.00;99.90;;;;;;4998444;28;20219;-79
2023/02/11 04:27:10;;;;;;;26.45;18.08;;;1.10;99.90;;;;;;4998676;28;20253;-80
2023/02/11 04:29:39;;;;;;;26.48;17.42;;;1.10;99.90;;;;;;5014026;28;20201;-79
2023/02/11 04:32:07;;;;;;;32.63;17.40;;;1.20;99.90;;;;;;4999985;28;20228;-79
2023/02/11 04:34:35;;;;;;;28.17;16.60;;;1.40;99.90;;;;;;4999427;28;20278;-79
2023/02/11 04:37:03;;;;;;;25.83;16.17;;;1.20;99.90;;;;;;5000209;28;20292;-79
2023/02/11 04:39:33;;;;;;;26.30;17.10;;;1.20;99.90;;;;;;5000875;28;20209;-80
2023/02/11 04:42:01;;;;;;;29.63;18.42;;;1.30;99.90;;;;;;4997294;28;20234;-79
2023/02/11 04:44:29;;;;;;;27.92;16.85;;;1.30;99.90;;;;;;4997652;28;20219;-79
2023/02/11 04:46:57;;;;;;;24.52;17.00;;;1.30;99.90;;;;;;4997013;28;20223;-79
2023/02/11 04:49:25;;;;;;;25.90;15.73;;;1.30;99.90;;;;;;4998854;28;20787;-79
2023/02/11 04:51:54;;;;;;;24.38;16.60;;;1.30;99.90;;;;;;4997395;28;20223;-78
2023/02/11 04:54:22;;;;;;;24.85;16.98;;;1.40;99.90;;;;;;4996883;28;20196;-78
2023/02/11 04:56:51;;;;;;;27.60;18.27;;;1.40;99.90;;;;;;5001214;28;20204;-81
2023/02/11 04:59:19;;;;;;;23.00;16.10;;;1.50;99.90;;;;;;5001559;28;20207;-80
2023/02/11 05:01:48;;;;;;;26.30;17.23;;;1.50;99.90;;;;;;5000986;28;20219;-81
2023/02/11 05:04:17;;;;;;;22.15;16.67;;;1.70;99.90;;;;;;5003831;28;20318;-81
2023/02/11 05:06:45;;;;;;;23.33;16.33;;;1.80;99.90;;;;;;5003237;28;20694;-79
2023/02/11 05:09:14;;;;;;;24.50;17.70;;;1.90;99.90;;;;;;5002623;28;20550;-79
2023/02/11 05:11:42;;;;;;;29.00;18.00;;;1.80;99.90;;;;;;5004842;28;20235;-79
2023/02/11 05:14:11;;;;;;;23.17;15.98;;;1.90;99.90;;;;;;4998915;28;20192;-79
2023/02/11 05:16:40;;;;;;;25.27;16.70;;;2.00;99.90;;;;;;4999919;28;20186;-79
2023/02/11 05:19:08;;;;;;;25.55;17.58;;;1.90;99.90;;;;;;4998584;28;20232;-78
2023/02/11 05:21:36;;;;;;;23.95;16.13;;;2.00;99.90;;;;;;5000135;28;20238;-77
2023/02/11 05:24:05;;;;;;;26.02;16.08;;;2.10;99.90;;;;;;4998827;28;20257;-79
2023/02/11 05:26:34;;;;;;;22.63;15.82;;;1.90;99.90;;;;;;5001705;28;20208;-79
2023/02/11 05:29:02;;;;;;;27.00;17.55;;;2.00;99.90;;;;;;5001885;28;20676;-79
2023/02/11 05:31:32;;;;;;;22.33;15.70;;;2.10;99.90;;;;;;5000697;28;20703;-79
2023/02/11 05:34:02;;;;;;;25.02;16.25;;;2.10;99.90;;;;;;4998366;28;20230;-78
2023/02/11 05:36:31;;;;;;;26.65;16.30;;;2.00;99.90;;;;;;5001314;28;20207;-80
2023/02/11 05:39:00;;;;;;;24.35;14.68;;;2.10;99.90;;;;;;5000521;28;20254;-78
2023/02/11 05:41:28;;;;;;;21.63;15.07;;;2.10;99.90;;;;;;4998458;28;20227;-77
2023/02/11 05:43:56;;;;;;;23.88;16.20;;;2.00;99.90;;;;;;4995145;28;20202;-79
2023/02/11 05:46:24;;;;;;;23.42;16.33;;;2.00;99.90;;;;;;4996633;28;20223;-79
2023/02/11 05:48:55;;;;;;;24.90;16.38;;;2.00;99.90;;;;;;4998053;28;20677;-79
2023/02/11 05:51:24;;;;;;;24.98;15.93;;;2.00;99.90;;;;;;5009930;28;20270;-80
2023/02/11 05:53:53;;;;;;;22.67;14.77;;;2.00;99.90;;;;;;4994655;28;20201;-79
2023/02/11 05:56:21;;;;;;;21.58;15.25;;;2.00;99.90;;;;;;4998571;28;20200;-81
2023/02/11 05:58:49;;;;;;;22.58;16.13;;;2.10;99.90;;;;;;4998232;28;20215;-80
2023/02/11 06:01:17;;;;;;;26.13;18.00;;;2.00;99.90;;;;;;4999195;28;20306;-81
2023/02/11 06:03:45;;;;;;;23.67;18.45;;;2.00;99.90;;;;;;5002480;28;20200;-79
2023/02/11 06:06:15;;;;;;;26.73;19.58;;;2.00;99.90;;;;;;5003764;28;20222;-79
2023/02/11 06:08:43;;;;;;;24.45;18.15;;;2.10;99.90;;;;;;5003037;28;20212;-79
2023/02/11 06:11:11;;;;;;;26.15;17.85;;;2.10;99.90;;;;;;5004629;28;20214;-80
2023/02/11 06:13:39;;;;;;;25.48;18.02;;;2.10;99.90;;;;;;5000189;28;20886;-81
2023/02/11 06:16:07;;;;;;;23.88;18.00;;;2.20;99.90;;;;;;4997413;28;20183;-80
2023/02/11 06:18:35;;;;;;;25.45;17.88;;;2.20;99.90;;;;;;5001796;28;20203;-81
2023/02/11 06:21:07;;;;;;;23.83;16.67;;;2.00;99.90;;;;;;4994284;28;20195;-80
2023/02/11 06:23:37;;;;;;;29.63;16.75;;;2.00;99.90;;;;;;4999176;28;20209;-79
2023/02/11 06:26:07;;;;;;;21.95;16.05;;;2.00;99.90;;;;;;5000913;28;20220;-78
2023/02/11 06:28:35;;;;;;;24.73;17.55;;;2.00;99.90;;;;;;5000075;28;20212;-79
2023/02/11 06:31:08;;;;;;;23.23;16.88;;;2.10;99.90;;;;;;4994189;28;20200;-79
2023/02/11 06:33:37;;;;;;;24.75;16.23;;;2.20;99.90;;;;;;4996946;28;20273;-80
2023/02/11 06:36:12;;;;;;;20.35;15.32;;;2.20;99.90;;;;;;4995358;28;20204;-80
2023/02/11 06:38:43;;;;;;;25.30;16.35;;;2.30;99.90;;;;;;5013433;28;20203;-80
2023/02/11 06:41:11;;;;;;;22.42;16.10;;;2.30;99.90;;;;;;4995810;28;20252;-78
2023/02/11 06:43:40;;;;;;;22.77;15.43;;;2.30;99.90;;;;;;4997312;28;20238;-79
2023/02/11 06:46:09;;;;;;;22.77;15.70;;;2.10;99.90;;;;;;5001115;28;20252;-80
2023/02/11 06:48:37;;;;;;;34.70;23.45;;;2.20;99.90;;;;;;5001862;28;20287;-79
2023/02/11 06:51:08;;;;;;;35.42;23.40;;;2.10;99.90;;;;;;5000687;28;20634;-78
2023/02/11 06:53:37;;;;;;;35.75;24.20;;;2.40;99.90;;;;;;4999585;28;20210;-78
2023/02/11 06:56:09;;;;;;;34.08;23.77;;;2.50;99.90;;;;;;5002894;28;20199;-79
2023/02/11 06:58:37;;;;;;;35.15;25.83;;;2.30;99.90;;;;;;5012726;28;20278;-79
2023/02/11 07:01:07;;;;;;;38.83;26.90;;;2.40;99.90;;;;;;5000208;28;20192;-78
2023/02/11 07:03:37;;;;;;;28.92;20.77;;;2.20;99.90;;;;;;4998094;28;20223;-80
2023/02/11 07:06:06;;;;;;;30.35;23.00;;;2.20;99.90;;;;;;5002339;28;20216;-80
2023/02/11 07:08:35;;;;;;;31.55;21.70;;;2.40;99.90;;;;;;5000964;28;20228;-81
2023/02/11 07:11:11;;;;;;;33.03;24.55;;;2.40;99.90;;;;;;5000074;28;20200;-80
2023/02/11 07:13:39;;;;;;;32.88;23.90;;;2.30;99.90;;;;;;5006317;28;20240;-79
2023/02/11 07:16:08;;;;;;;31.15;24.27;;;2.30;99.90;;;;;;5000399;28;20215;-79
2023/02/11 07:18:37;;;;;;;31.10;22.02;;;2.30;99.90;;;;;;5017332;28;20204;-79
2023/02/11 07:21:06;;;;;;;33.00;23.55;;;2.30;99.90;;;;;;4997437;28;20670;-80
2023/02/11 07:23:35;;;;;;;29.45;21.70;;;2.40;99.90;;;;;;4997616;28;20202;-80
2023/02/11 07:26:05;;;;;;;30.33;21.40;;;2.50;99.90;;;;;;5006948;28;20216;-81
2023/02/11 07:28:36;;;;;;;26.35;20.45;;;2.40;99.90;;;;;;5003901;28;20197;-80
2023/02/11 07:31:06;;;;;;;25.23;17.42;;;2.50;99.90;;;;;;4999773;28;20204;-80
2023/02/11 07:33:35;;;;;;;20.27;15.35;;;2.60;99.90;;;;;;5001010;28;20196;-79
2023/02/11 07:36:05;;;;;;;25.35;17.30;;;2.60;99.90;;;;;;4999422;28;20188;-81
2023/02/11 07:38:34;;;;;;;25.52;14.93;;;2.70;99.90;;;;;;5004046;28;20224;-80
2023/02/11 07:41:02;;;;;;;22.08;15.50;;;2.70;99.90;;;;;;4998693;28;20718;-80
2023/02/11 07:43:31;;;;;;;21.52;14.93;;;2.70;99.90;;;;;;5001802;28;20204;-78
2023/02/11 07:46:03;;;;;;;23.42;17.70;;;2.80;99.90;;;;;;5004129;28;20272;-79
2023/02/11 07:48:31;;;;;;;22.63;15.10;;;3.10;99.90;;;;;;5007959;28;20277;-81
2023/02/11 07:51:06;;;;;;;25.58;16.27;;;3.10;99.90;;;;;;5001505;28;20245;-77
2023/02/11 07:53:34;;;;;;;21.40;15.40;;;3.30;99.90;;;;;;5000343;28;20211;-79
2023/02/11 07:56:03;;;;;;;22.33;15.07;;;3.50;99.90;;;;;;5000674;28;20662;-80
2023/02/11 07:58:31;;;;;;;22.25;18.50;;;3.60;99.90;;;;;;5001502;28;20208;-80
2023/02/11 08:01:02;;;;;;;23.50;16.98;;;3.70;99.90;;;;;;4995664;28;20337;-79
2023/02/11 08:03:32;;;;;;;24.63;17.80;;;3.70;99.90;;;;;;4996895;28;20344;-80
2023/02/11 08:06:04;;;;;;;21.63;16.73;;;3.80;99.90;;;;;;4998975;28;20766;-79
2023/02/11 08:08:32;;;;;;;21.67;15.02;;;3.70;99.90;;;;;;5000899;28;20205;-79
2023/02/11 08:11:06;;;;;;;27.73;19.10;;;3.70;99.90;;;;;;4998337;28;20583;-78
2023/02/11 08:13:35;;;;;;;45.53;27.73;;;3.80;99.90;;;;;;5007075;28;21125;-79
2023/02/11 08:16:05;;;;;;;32.28;19.23;;;3.60;99.90;;;;;;4997724;28;20555;-77
2023/02/11 08:18:35;;;;;;;20.90;16.70;;;3.60;99.90;;;;;;5001300;28;20454;-77
2023/02/11 08:21:07;;;;;;;19.75;14.60;;;3.70;99.90;;;;;;4996800;28;20331;-79
2023/02/11 08:23:36;;;;;;;20.88;14.40;;;3.60;99.90;;;;;;4997014;28;20614;-78
2023/02/11 08:26:05;;;;;;;18.08;13.68;;;3.60;99.90;;;;;;4997637;28;20282;-78
2023/02/11 08:28:36;;;;;;;18.35;12.93;;;3.70;99.90;;;;;;4998864;28;20570;-78
2023/02/11 08:31:07;;;;;;;22.15;14.48;;;3.90;99.90;;;;;;4999759;28;20211;-78
2023/02/11 08:33:36;;;;;;;20.58;14.30;;;4.00;99.90;;;;;;4993253;28;20210;-78
2023/02/11 08:36:09;;;;;;;21.75;13.13;;;4.00;99.90;;;;;;4998489;28;20259;-77
2023/02/11 08:38:37;;;;;;;16.67;13.57;;;4.00;99.90;;;;;;4998214;28;20222;-77
2023/02/11 08:41:06;;;;;;;20.10;14.23;;;4.10;99.90;;;;;;5000978;28;20202;-77
2023/02/11 08:43:34;;;;;;;25.15;15.50;;;4.20;99.90;;;;;;4999069;28;20244;-77
2023/02/11 08:46:02;;;;;;;23.55;15.85;;;4.30;99.90;;;;;;4994542;28;20204;-78
2023/02/11 08:48:32;;;;;;;20.90;16.33;;;4.40;99.90;;;;;;4997256;28;20205;-77
2023/02/11 08:51:00;;;;;;;23.95;15.75;;;4.40;99.90;;;;;;4995331;28;20218;-79
2023/02/11 08:53:28;;;;;;;20.85;15.38;;;4.50;99.90;;;;;;4990169;28;20198;-78
2023/02/11 08:55:56;;;;;;;22.98;15.30;;;4.70;99.90;;;;;;4992472;28;20198;-78
2023/02/11 08:58:24;;;;;;;25.83;16.40;;;5.00;99.90;;;;;;4999339;28;20210;-79
2023/02/11 09:00:53;;;;;;;21.23;16.43;;;6.00;99.90;;;;;;4998265;28;20209;-78
2023/02/11 09:03:21;;;;;;;19.03;13.77;;;6.80;99.90;;;;;;4997960;28;20450;-79
2023/02/11 09:05:52;;;;;;;19.40;14.70;;;7.20;99.90;;;;;;4993557;28;20462;-78
2023/02/11 09:08:21;;;;;;;18.93;14.53;;;7.40;99.90;;;;;;4998459;28;20495;-80
2023/02/11 09:10:49;;;;;;;19.10;14.53;;;7.30;99.90;;;;;;5002392;28;20462;-78
2023/02/11 09:13:17;;;;;;;19.07;14.30;;;7.40;99.90;;;;;;4999984;28;20460;-79
2023/02/11 09:15:46;;;;;;;17.27;13.00;;;7.70;99.90;;;;;;4999630;28;20486;-78
2023/02/11 09:18:14;;;;;;;17.07;13.07;;;7.80;99.90;;;;;;4999878;28;20481;-80
2023/02/11 09:20:42;;;;;;;18.33;14.37;;;7.80;99.90;;;;;;5009095;28;20446;-80
2023/02/11 09:23:12;;;;;;;16.90;12.60;;;8.00;99.90;;;;;;5010808;28;20532;-80
2023/02/11 09:25:40;;;;;;;18.10;14.10;;;8.30;99.90;;;;;;5007091;28;20455;-80
2023/02/11 09:28:10;;;;;;;18.67;12.27;;;8.40;99.90;;;;;;5001436;28;20515;-78
2023/02/11 09:30:38;;;;;;;17.50;12.40;;;8.40;99.90;;;;;;5004971;28;20461;-80
2023/02/11 09:33:07;;;;;;;18.50;12.67;;;8.70;99.90;;;;;;5001657;28;20470;-80
2023/02/11 09:35:35;;;;;;;18.70;11.63;;;9.10;99.90;;;;;;5011460;28;20514;-84
2023/02/11 09:38:03;;;;;;;13.00;10.30;;;9.90;99.90;;;;;;5001437;28;20227;-81
2023/02/11 09:40:33;;;;;;;17.33;12.30;;;10.50;99.90;;;;;;5000691;28;20849;-81
2023/02/11 09:43:07;;;;;;;13.90;11.23;;;10.60;99.90;;;;;;4997750;28;20488;-80
2023/02/11 09:45:36;;;;;;;16.00;13.25;;;10.70;99.90;;;;;;4998694;28;20439;-80
2023/02/11 09:48:12;;;;;;;16.07;12.90;;;10.90;99.90;;;;;;4990918;28;20217;-81
2023/02/11 09:50:43;;;;;;;16.87;12.73;;;11.20;99.90;;;;;;4998279;28;20481;-81
2023/02/11 09:53:18;;;;;;;20.37;13.77;;;11.00;99.90;;;;;;4995035;28;20529;-80
2023/02/11 09:55:54;;;;;;;12.43;9.67;;;11.40;99.90;;;;;;4995528;28;20455;-80
2023/02/11 09:58:27;;;;;;;13.30;9.97;;;11.80;99.90;;;;;;5001988;28;20480;-80
2023/02/11 10:01:05;;;;;;;13.10;10.17;;;11.60;99.90;;;;;;4990983;28;20486;-81
2023/02/11 10:03:50;;;;;;;11.33;10.10;;;11.50;99.90;;;;;;4995536;28;20480;-80
2023/02/11 10:06:45;;;;;;;11.87;8.17;;;11.90;99.90;;;;;;4999030;28;20975;-80
2023/02/11 10:09:35;;;;;;;11.35;9.82;;;12.10;99.90;;;;;;4995619;28;20460;-80
2023/02/11 10:12:19;;;;;;;12.17;9.50;;;12.20;99.80;;;;;;4993855;28;20223;-80
2023/02/11 10:15:09;;;;;;;11.60;9.70;;;12.20;98.70;;;;;;4998280;28;20441;-78
2023/02/11 10:17:45;;;;;;;10.50;8.27;;;11.70;95.90;;;;;;4992396;28;20466;-80
2023/02/11 10:20:23;;;;;;;9.90;8.37;;;11.40;93.30;;;;;;4993449;28;20453;-80
2023/02/11 10:22:54;;;;;;;11.73;9.00;;;11.40;93.70;;;;;;4994908;28;20473;-80
2023/02/11 10:25:25;;;;;;;10.60;8.90;;;12.20;97.00;;;;;;4994881;28;20463;-78
2023/02/11 10:27:59;;;;;;;10.73;7.77;;;12.90;98.90;;;;;;4991951;28;20475;-80
2023/02/11 10:30:32;;;;;;;9.83;8.67;;;13.30;99.90;;;;;;4991679;28;20467;-81
2023/02/11 10:33:05;;;;;;;10.50;8.03;;;14.00;99.90;;;;;;4991331;28;20486;-82
2023/02/11 10:35:33;;;;;;;10.30;9.00;;;14.90;99.90;;;;;;4991172;28;20475;-80
2023/02/11 10:38:02;;;;;;;11.27;8.30;;;15.40;99.90;;;;;;4993356;28;20462;-80
2023/02/11 10:40:31;;;;;;;8.57;7.77;;;16.00;99.90;;;;;;4991928;28;20486;-80
2023/02/11 10:43:04;;;;;;;7.47;6.77;;;16.50;99.90;;;;;;4989759;28;20491;-80
2023/02/11 10:45:35;;;;;;;9.17;7.70;;;17.10;99.90;;;;;;4990867;28;20464;-80
2023/02/11 10:48:06;;;;;;;7.60;6.90;;;17.20;99.90;;;;;;4993827;28;20554;-81
2023/02/11 10:50:35;;;;;;;10.60;9.37;;;17.60;99.90;;;;;;4989663;28;21069;-80
2023/02/11 10:53:16;;;;;;;9.53;8.53;;;18.00;99.90;;;;;;4992911;28;20510;-80
2023/02/11 10:55:52;;;;;;;10.60;8.70;;;18.30;99.90;;;;;;4989658;28;20465;-81
2023/02/11 10:58:27;;;;;;;10.60;9.50;;;18.30;99.90;;;;;;4996141;28;20457;-80
2023/02/11 11:00:58;;;;;;;9.77;8.73;;;18.60;99.90;;;;;;4994043;28;20455;-79
2023/02/11 11:03:29;;;;;;;10.40;8.83;;;18.70;99.90;;;;;;4996464;28;20809;-79
2023/02/11 11:05:59;;;;;;;10.30;9.30;;;18.80;99.90;;;;;;4995750;28;20453;-79
2023/02/11 11:08:41;;;;;;;9.53;8.63;;;18.90;99.90;;;;;;4996615;28;20469;-79
2023/02/11 11:11:12;;;;;;;8.67;7.80;;;18.50;99.90;;;;;;4998193;28;21136;-80
2023/02/11 11:13:55;;;;;;;10.13;9.13;;;17.50;99.90;;;;;;4998009;28;20485;-80
2023/02/11 11:16:25;;;;;;;9.70;8.77;;;17.30;99.50;;;;;;4996278;28;20577;-80
2023/02/11 11:19:13;;;;;;;11.07;8.90;;;17.40;99.90;;;;;;4993693;28;20450;-80
2023/02/11 11:21:44;;;;;;;11.20;9.50;;;17.90;99.90;;;;;;4993724;28;20486;-80
2023/02/11 11:24:20;;;;;;;11.80;9.07;;;19.00;99.90;;;;;;4989677;28;20473;-79
2023/02/11 11:26:52;;;;;;;10.33;9.30;;;19.40;99.90;;;;;;4997642;28;21052;-79
2023/02/11 11:29:29;;;;;;;9.87;7.80;;;19.70;99.90;;;;;;4991390;28;20477;-79
2023/02/11 11:32:00;;;;;;;8.93;8.13;;;20.00;99.90;;;;;;4993370;28;20488;-80
2023/02/11 11:34:31;;;;;;;9.27;8.37;;;20.70;99.90;;;;;;4991694;28;20459;-79
2023/02/11 11:37:09;;;;;;;10.03;8.70;;;20.80;99.90;;;;;;4991252;28;20449;-79
2023/02/11 11:39:39;;;;;;;9.70;8.70;;;20.80;99.90;;;;;;4995949;28;21252;-79
2023/02/11 11:42:26;;;;;;;9.90;8.00;;;19.70;99.90;;;;;;4992466;28;20473;-78
2023/02/11 11:45:00;;;;;;;9.97;8.87;;;18.00;96.90;;;;;;4993741;28;20494;-78
2023/02/11 11:47:36;;;;;;;10.53;8.00;;;16.80;87.50;;;;;;4991105;28;21436;-79
2023/02/11 11:50:27;;;;;;;9.80;8.80;;;16.10;76.40;;;;;;4992305;28;20464;-79
2023/02/11 11:53:00;;;;;;;9.03;8.17;;;15.30;64.80;;;;;;4984924;28;20485;-79
2023/02/11 11:55:35;;;;;;;10.60;9.50;;;14.80;58.00;;;;;;4990592;28;21095;-79
2023/02/11 11:58:05;;;;;;;9.30;7.90;;;14.30;53.30;;;;;;4994125;28;20602;-78
2023/02/11 12:00:40;;;;;;;8.13;7.33;;;14.00;51.70;;;;;;4987206;28;20445;-78
2023/02/11 12:03:32;;;;;;;7.90;7.10;;;14.00;51.90;;;;;;4994307;28;20489;-79
2023/02/11 12:06:17;;;;;;;8.53;7.60;;;13.90;51.00;;;;;;4996181;28;20965;-78
2023/02/11 12:08:58;;;;;;;10.20;7.30;;;13.90;51.00;;;;;;4997055;28;20474;-79
2023/02/11 12:11:39;;;;;;;7.13;5.77;;;13.70;50.00;;;;;;4990151;28;20473;-78
2023/02/11 12:14:16;;;;;;;6.20;5.35;;;13.80;50.60;;;;;;4993820;28;20407;-79
2023/02/11 12:16:57;;;;;;;4.10;3.70;;;13.90;52.60;;;;;;4992064;28;20832;-79
2023/02/11 12:19:55;;;;;;;9.40;4.17;;;13.90;51.80;;;;;;4992377;28;20456;-80
2023/02/11 12:22:38;;;;;;;5.43;4.93;;;13.70;49.30;;;;;;4991960;28;20524;-79
2023/02/11 12:25:26;;;;;;;5.70;4.30;;;13.50;47.10;;;;;;4992405;28;20462;-78
2023/02/11 12:28:07;;;;;;;5.00;4.20;;;13.60;50.90;;;;;;4996168;28;20505;-79
2023/02/11 12:31:08;;;;;;;4.33;3.93;;;13.70;52.50;;;;;;4991808;28;20569;-80
2023/02/11 12:34:05;;;;;;;5.43;3.70;;;13.70;51.50;;;;;;4988897;28;20559;-81
2023/02/11 12:36:45;;;;;;;4.30;3.90;;;13.60;52.40;;;;;;4989000;28;20462;-78
2023/02/11 12:39:26;;;;;;;4.53;4.00;;;13.50;50.10;;;;;;4990476;28;20460;-79
2023/02/11 12:45:19;;;;;;;4.67;3.83;;;13.40;51.00;;;;;;4994384;28;20504;-80
2023/02/11 12:48:01;;;;;;;5.70;4.50;;;13.50;52.60;;;;;;5002158;28;20458;-77
2023/02/11 12:50:40;;;;;;;5.37;4.87;;;13.50;53.30;;;;;;5003643;28;20436;-79
2023/02/11 12:53:37;;;;;;;4.60;4.17;;;13.50;52.50;;;;;;4998989;28;20471;-79
2023/02/11 12:56:12;;;;;;;5.40;4.73;;;13.40;52.20;;;;;;4994635;28;20466;-81
2023/02/11 12:58:43;;;;;;;5.20;4.70;;;13.70;56.50;;;;;;4998182;28;20470;-81
2023/02/11 13:01:19;;;;;;;5.13;4.63;;;13.70;54.90;;;;;;4999337;28;20462;-80
2023/02/11 13:03:54;;;;;;;7.00;6.37;;;14.00;60.50;;;;;;4997503;28;20545;-80
2023/02/11 13:06:33;;;;;;;9.47;5.20;;;13.70;55.70;;;;;;4996742;28;20537;-80
2023/02/11 13:09:04;;;;;;;6.70;6.00;;;13.70;55.80;;;;;;5001101;28;20483;-78